createdAt,value
2016-05-02T00:00:55.180Z,0
2016-05-02T00:01:55.496Z,0
2016-05-02T00:03:09.358Z,0
2016-05-02T00:03:55.736Z,0
2016-05-02T00:04:55.160Z,0
2016-05-02T00:05:55.351Z,0
2016-05-02T00:07:23.465Z,0
2016-05-02T00:07:55.168Z,0
2016-05-02T00:08:55.687Z,0
2016-05-02T00:09:55.299Z,0
2016-05-02T00:10:55.551Z,0
2016-05-02T00:11:55.320Z,0
2016-05-02T00:12:55.338Z,0
2016-05-02T00:13:55.575Z,0
2016-05-02T00:14:55.327Z,0
2016-05-02T00:15:55.534Z,0
2016-05-02T00:17:09.084Z,0
2016-05-02T00:17:55.336Z,0
2016-05-02T00:18:55.151Z,0
2016-05-02T00:19:55.544Z,0
2016-05-02T00:20:55.469Z,0
2016-05-02T00:21:55.330Z,0
2016-05-02T00:22:55.365Z,0
2016-05-02T00:24:09.602Z,0
2016-05-02T00:24:54.839Z,0
2016-05-02T00:25:55.217Z,0
2016-05-02T00:26:55.344Z,0
2016-05-02T00:27:55.534Z,0
2016-05-02T00:29:23.509Z,0
2016-05-02T00:29:55.478Z,0
2016-05-02T00:30:55.433Z,0
2016-05-02T00:31:55.561Z,0
2016-05-02T00:32:55.204Z,0
2016-05-02T00:33:55.207Z,0
2016-05-02T00:34:55.443Z,0
2016-05-02T00:35:55.477Z,0
2016-05-02T00:36:55.402Z,0
2016-05-02T00:37:55.218Z,0
2016-05-02T00:38:55.392Z,0
2016-05-02T00:39:55.176Z,0
2016-05-02T00:40:55.365Z,0
2016-05-02T00:41:54.854Z,0
2016-05-02T00:42:55.809Z,0
2016-05-02T00:43:55.374Z,0
2016-05-02T00:44:55.392Z,0
2016-05-02T00:45:55.348Z,0
2016-05-02T00:46:55.226Z,0
2016-05-02T00:47:55.306Z,0
2016-05-02T00:48:55.372Z,0
2016-05-02T00:49:55.375Z,0
2016-05-02T00:50:55.612Z,0
2016-05-02T00:51:55.442Z,0
2016-05-02T00:52:55.211Z,0
2016-05-02T00:53:55.214Z,0
2016-05-02T00:55:09.310Z,0
2016-05-02T00:55:55.422Z,0
2016-05-02T00:56:55.394Z,0
2016-05-02T00:58:55.430Z,0
2016-05-02T01:00:09.464Z,0
2016-05-02T01:00:55.404Z,0
2016-05-02T01:01:55.438Z,0
2016-05-02T01:02:55.419Z,0
2016-05-02T01:03:55.450Z,0
2016-05-02T01:04:55.935Z,0
2016-05-02T01:05:55.966Z,0
2016-05-02T01:06:56.043Z,0
2016-05-02T01:07:55.616Z,0
2016-05-02T01:08:55.635Z,0
2016-05-02T01:09:55.654Z,0
2016-05-02T01:10:55.891Z,0
2016-05-02T01:14:09.810Z,0
2016-05-02T01:14:55.584Z,0
2016-05-02T01:15:55.624Z,0
2016-05-02T01:16:55.758Z,0
2016-05-02T01:17:55.625Z,0
2016-05-02T01:18:55.739Z,0
2016-05-02T01:19:55.602Z,0
2016-05-02T01:20:55.326Z,0
2016-05-02T01:21:55.611Z,0
2016-05-02T01:22:55.616Z,0
2016-05-02T01:23:55.994Z,0
2016-05-02T01:24:56.092Z,0
2016-05-02T01:25:55.987Z,0
2016-05-02T01:26:55.786Z,0
2016-05-02T01:27:55.680Z,0
2016-05-02T01:28:55.824Z,0
2016-05-02T01:29:55.796Z,0
2016-05-02T01:30:55.814Z,0
2016-05-02T01:31:55.787Z,0
2016-05-02T01:32:55.851Z,0
2016-05-02T01:33:55.808Z,0
2016-05-02T01:34:55.529Z,0
2016-05-02T01:35:56.031Z,0
2016-05-02T01:36:55.316Z,0
2016-05-02T01:37:55.787Z,0
2016-05-02T01:38:55.884Z,0
2016-05-02T01:39:55.995Z,0
2016-05-02T01:40:55.873Z,0
2016-05-02T01:41:55.860Z,0
2016-05-02T01:42:55.832Z,0
2016-05-02T01:43:55.335Z,0
2016-05-02T01:44:56.009Z,0
2016-05-02T01:45:55.824Z,0
2016-05-02T01:46:55.796Z,0
2016-05-02T01:47:55.502Z,0
2016-05-02T01:48:56.051Z,0
2016-05-02T01:49:55.679Z,0
2016-05-02T01:50:55.885Z,0
2016-05-02T01:51:55.825Z,0
2016-05-02T01:52:55.655Z,0
2016-05-02T01:53:55.643Z,0
2016-05-02T01:54:55.817Z,0
2016-05-02T01:55:55.804Z,0
2016-05-02T01:56:55.823Z,0
2016-05-02T01:57:55.841Z,0
2016-05-02T01:58:56.078Z,0
2016-05-02T01:59:55.659Z,0
2016-05-02T02:00:55.896Z,0
2016-05-02T02:01:55.820Z,0
2016-05-02T02:02:55.495Z,0
2016-05-02T02:03:55.810Z,0
2016-05-02T02:04:56.016Z,0
2016-05-02T02:05:56.675Z,0
2016-05-02T02:06:55.834Z,0
2016-05-02T02:07:55.664Z,0
2016-05-02T02:08:55.683Z,0
2016-05-02T02:10:55.813Z,0
2016-05-02T02:11:55.831Z,0
2016-05-02T02:12:55.866Z,0
2016-05-02T02:13:55.822Z,0
2016-05-02T02:14:55.839Z,0
2016-05-02T02:15:55.842Z,0
2016-05-02T02:16:55.844Z,0
2016-05-02T02:17:55.879Z,0
2016-05-02T02:18:55.866Z,0
2016-05-02T02:19:56.072Z,0
2016-05-02T02:20:56.199Z,0
2016-05-02T02:21:56.046Z,0
2016-05-02T02:22:56.236Z,0
2016-05-02T02:23:55.844Z,0
2016-05-02T02:25:55.874Z,0
2016-05-02T02:26:55.867Z,0
2016-05-02T02:27:56.198Z,0
2016-05-02T02:28:56.685Z,0
2016-05-02T02:29:55.906Z,0
2016-05-02T02:30:56.081Z,0
2016-05-02T02:31:55.849Z,0
2016-05-02T02:32:55.868Z,0
2016-05-02T02:33:55.870Z,0
2016-05-02T02:34:55.873Z,0
2016-05-02T02:35:56.734Z,0
2016-05-02T02:36:55.925Z,0
2016-05-02T02:37:56.100Z,0
2016-05-02T02:38:55.742Z,0
2016-05-02T02:39:55.886Z,0
2016-05-02T02:40:55.248Z,0
2016-05-02T02:41:55.939Z,0
2016-05-02T02:42:55.910Z,0
2016-05-02T02:43:56.100Z,0
2016-05-02T02:44:55.930Z,0
2016-05-02T02:46:09.964Z,0
2016-05-02T02:46:56.155Z,0
2016-05-02T02:47:55.892Z,0
2016-05-02T02:48:55.785Z,0
2016-05-02T02:49:55.272Z,0
2016-05-02T02:50:55.744Z,0
2016-05-02T02:51:55.919Z,0
2016-05-02T02:52:55.921Z,0
2016-05-02T02:53:55.940Z,0
2016-05-02T02:54:55.896Z,0
2016-05-02T02:55:55.913Z,0
2016-05-02T02:56:55.901Z,0
2016-05-02T02:57:55.621Z,4
2016-05-02T02:58:55.781Z,4
2016-05-02T02:59:55.925Z,0
2016-05-02T03:00:55.927Z,0
2016-05-02T03:01:55.929Z,4
2016-05-02T03:02:55.776Z,4
2016-05-02T03:03:56.138Z,4
2016-05-02T03:04:56.173Z,4
2016-05-02T03:05:55.957Z,4
2016-05-02T03:06:55.975Z,8
2016-05-02T03:07:56.009Z,8
2016-05-02T03:09:10.027Z,8
2016-05-02T03:09:55.795Z,8
2016-05-02T03:10:55.923Z,12
2016-05-02T03:11:55.942Z,12
2016-05-02T03:12:56.148Z,16
2016-05-02T03:13:55.962Z,20
2016-05-02T03:14:55.917Z,20
2016-05-02T03:15:55.936Z,24
2016-05-02T03:16:55.798Z,32
2016-05-02T03:17:56.020Z,36
2016-05-02T03:18:55.960Z,36
2016-05-02T03:19:55.963Z,44
2016-05-02T03:20:55.949Z,52
2016-05-02T03:21:55.781Z,60
2016-05-02T03:22:55.939Z,64
2016-05-02T03:23:55.989Z,76
2016-05-02T03:24:56.132Z,88
2016-05-02T03:25:55.947Z,96
2016-05-02T03:26:56.154Z,112
2016-05-02T03:27:55.937Z,124
2016-05-02T03:28:56.159Z,140
2016-05-02T03:29:56.037Z,156
2016-05-02T03:30:56.040Z,172
2016-05-02T03:31:55.963Z,192
2016-05-02T03:33:10.232Z,216
2016-05-02T03:33:56.172Z,232
2016-05-02T03:35:10.018Z,260
2016-05-02T03:36:10.662Z,284
2016-05-02T03:36:55.946Z,304
2016-05-02T03:37:55.933Z,336
2016-05-02T03:38:55.951Z,364
2016-05-02T03:39:55.798Z,392
2016-05-02T03:41:55.803Z,456
2016-05-02T03:42:56.133Z,488
2016-05-02T03:43:55.964Z,524
2016-05-02T03:44:55.983Z,560
2016-05-02T03:46:09.876Z,612
2016-05-02T03:46:55.145Z,644
2016-05-02T03:47:55.944Z,684
2016-05-02T03:48:55.963Z,728
2016-05-02T03:49:55.324Z,772
2016-05-02T03:50:56.046Z,820
2016-05-02T03:51:55.955Z,868
2016-05-02T03:52:55.958Z,916
2016-05-02T03:53:56.007Z,968
2016-05-02T03:54:55.807Z,1016
2016-05-02T03:55:56.013Z,1068
2016-05-02T03:57:10.078Z,1132
2016-05-02T03:57:56.222Z,1176
2016-05-02T03:58:55.818Z,1236
2016-05-02T03:59:55.946Z,1292
2016-05-02T04:00:55.807Z,1352
2016-05-02T04:01:55.951Z,1412
2016-05-02T04:02:55.985Z,1468
2016-05-02T04:03:55.800Z,1524
2016-05-02T04:04:55.959Z,1580
2016-05-02T04:06:09.868Z,1652
2016-05-02T04:06:55.855Z,1696
2016-05-02T04:07:55.967Z,1756
2016-05-02T04:09:10.267Z,1832
2016-05-02T04:09:56.440Z,1880
2016-05-02T04:10:56.350Z,1940
2016-05-02T04:11:55.962Z,2004
2016-05-02T04:12:55.965Z,2060
2016-05-02T04:13:55.983Z,2112
2016-05-02T04:14:56.158Z,2164
2016-05-02T04:15:56.004Z,2212
2016-05-02T04:16:55.991Z,2264
2016-05-02T04:17:56.181Z,2312
2016-05-02T04:18:55.997Z,2368
2016-05-02T04:19:56.046Z,2420
2016-05-02T04:20:57.564Z,2468
2016-05-02T04:21:56.255Z,2516
2016-05-02T04:22:55.960Z,2564
2016-05-02T04:23:55.963Z,2608
2016-05-02T04:24:55.841Z,2652
2016-05-02T04:25:56.015Z,2700
2016-05-02T04:26:55.955Z,2744
2016-05-02T04:27:55.818Z,2800
2016-05-02T04:28:56.210Z,2856
2016-05-02T04:29:56.041Z,2912
2016-05-02T04:30:56.044Z,2968
2016-05-02T04:31:56.234Z,3024
2016-05-02T04:32:55.971Z,3076
2016-05-02T04:33:55.818Z,3124
2016-05-02T04:34:55.977Z,3176
2016-05-02T04:35:55.979Z,3216
2016-05-02T04:37:10.060Z,3272
2016-05-02T04:37:55.970Z,3308
2016-05-02T04:39:10.098Z,3376
2016-05-02T04:39:55.975Z,3412
2016-05-02T04:40:55.961Z,3456
2016-05-02T04:41:55.823Z,3500
2016-05-02T04:42:56.015Z,3544
2016-05-02T04:43:56.064Z,3584
2016-05-02T04:44:55.707Z,3620
2016-05-02T04:45:56.053Z,3660
2016-05-02T04:46:55.837Z,3704
2016-05-02T04:47:56.184Z,3744
2016-05-02T04:48:55.983Z,3784
2016-05-02T04:49:56.220Z,3828
2016-05-02T04:50:55.848Z,3872
2016-05-02T04:51:55.991Z,3924
2016-05-02T04:53:10.291Z,3980
2016-05-02T04:53:56.075Z,4012
2016-05-02T04:54:55.827Z,4060
2016-05-02T04:55:56.189Z,4100
2016-05-02T04:56:56.021Z,4132
2016-05-02T04:57:55.992Z,4168
2016-05-02T04:58:55.979Z,4208
2016-05-02T04:59:56.013Z,4248
2016-05-02T05:00:55.844Z,4288
2016-05-02T05:01:56.002Z,4324
2016-05-02T05:02:55.880Z,4356
2016-05-02T05:03:55.993Z,4384
2016-05-02T05:04:55.995Z,4420
2016-05-02T05:05:56.263Z,4464
2016-05-02T05:07:10.282Z,4512
2016-05-02T05:07:56.113Z,4536
2016-05-02T05:08:55.866Z,4560
2016-05-02T05:09:56.009Z,4592
2016-05-02T05:10:56.215Z,4624
2016-05-02T05:11:56.092Z,4668
2016-05-02T05:12:56.095Z,4704
2016-05-02T05:13:56.004Z,4732
2016-05-02T05:14:55.851Z,4756
2016-05-02T05:15:55.868Z,4780
2016-05-02T05:16:56.231Z,4800
2016-05-02T05:17:56.265Z,4808
2016-05-02T05:18:56.236Z,4836
2016-05-02T05:19:56.223Z,4868
2016-05-02T05:20:56.069Z,4900
2016-05-02T05:21:56.072Z,4924
2016-05-02T05:22:55.762Z,4960
2016-05-02T05:23:55.797Z,5080
2016-05-02T05:24:55.721Z,5272
2016-05-02T05:25:56.458Z,5260
2016-05-02T05:26:56.055Z,5152
2016-05-02T05:27:56.244Z,5148
2016-05-02T05:28:56.310Z,5132
2016-05-02T05:29:56.469Z,5156
2016-05-02T05:30:56.081Z,5168
2016-05-02T05:32:10.333Z,5172
2016-05-02T05:33:10.118Z,5192
2016-05-02T05:33:56.260Z,5184
2016-05-02T05:34:56.279Z,5112
2016-05-02T05:35:56.204Z,5148
2016-05-02T05:36:55.909Z,5264
2016-05-02T05:37:56.068Z,5408
2016-05-02T05:38:56.071Z,5456
2016-05-02T05:39:56.276Z,5484
2016-05-02T05:40:55.952Z,5504
2016-05-02T05:41:56.079Z,5604
2016-05-02T05:43:10.300Z,5780
2016-05-02T05:43:56.068Z,5652
2016-05-02T05:44:55.806Z,5656
2016-05-02T05:45:56.074Z,5672
2016-05-02T05:46:55.951Z,5696
2016-05-02T05:47:55.986Z,5720
2016-05-02T05:48:56.114Z,5740
2016-05-02T05:49:56.117Z,5760
2016-05-02T05:50:55.994Z,5784
2016-05-02T05:51:56.325Z,5812
2016-05-02T05:52:55.811Z,5836
2016-05-02T05:53:56.174Z,5872
2016-05-02T05:54:56.161Z,5920
2016-05-02T05:55:56.320Z,5956
2016-05-02T05:56:56.151Z,5976
2016-05-02T05:57:56.716Z,6000
2016-05-02T05:58:56.390Z,6016
2016-05-02T05:59:55.955Z,6040
2016-05-02T06:00:55.958Z,6064
2016-05-02T06:01:55.961Z,6080
2016-05-02T06:02:55.979Z,6088
2016-05-02T06:03:56.138Z,6096
2016-05-02T06:04:56.141Z,6116
2016-05-02T06:05:56.159Z,6136
2016-05-02T06:06:56.365Z,6156
2016-05-02T06:08:10.243Z,6196
2016-05-02T06:08:56.168Z,6292
2016-05-02T06:09:56.561Z,6304
2016-05-02T06:10:56.579Z,6248
2016-05-02T06:11:56.393Z,6268
2016-05-02T06:12:56.350Z,6280
2016-05-02T06:13:56.009Z,6304
2016-05-02T06:14:55.714Z,6336
2016-05-02T06:15:55.717Z,6368
2016-05-02T06:16:56.064Z,6396
2016-05-02T06:17:56.176Z,6440
2016-05-02T06:18:56.053Z,6476
2016-05-02T06:19:56.462Z,6512
2016-05-02T06:20:56.167Z,6524
2016-05-02T06:21:56.405Z,6540
2016-05-02T06:22:56.210Z,6564
2016-05-02T06:23:56.212Z,6592
2016-05-02T06:24:56.200Z,6620
2016-05-02T06:25:56.514Z,6632
2016-05-02T06:26:56.221Z,6644
2016-05-02T06:27:56.254Z,6648
2016-05-02T06:28:56.054Z,6696
2016-05-02T06:29:56.432Z,6744
2016-05-02T06:30:56.232Z,6812
2016-05-02T06:31:56.624Z,6868
2016-05-02T06:32:56.252Z,6904
2016-05-02T06:34:10.536Z,6952
2016-05-02T06:34:56.413Z,6968
2016-05-02T06:35:56.105Z,6960
2016-05-02T06:36:56.248Z,6940
2016-05-02T06:38:10.344Z,6872
2016-05-02T06:38:56.221Z,6844
2016-05-02T06:39:56.240Z,6880
2016-05-02T06:40:56.274Z,6876
2016-05-02T06:41:56.543Z,6828
2016-05-02T06:42:56.357Z,6792
2016-05-02T06:43:56.298Z,7000
2016-05-02T06:44:56.097Z,7552
2016-05-02T06:46:10.412Z,7960
2016-05-02T06:46:56.711Z,7456
2016-05-02T06:47:56.324Z,6960
2016-05-02T06:48:56.342Z,6748
2016-05-02T06:49:56.548Z,6748
2016-05-02T06:50:57.723Z,6832
2016-05-02T06:51:56.303Z,6972
2016-05-02T06:52:56.274Z,6924
2016-05-02T06:53:56.308Z,6888
2016-05-02T06:54:56.311Z,7000
2016-05-02T06:55:56.174Z,7224
2016-05-02T06:56:56.160Z,7424
2016-05-02T06:57:56.335Z,7184
2016-05-02T06:58:56.322Z,6920
2016-05-02T06:59:56.310Z,6936
2016-05-02T07:00:56.530Z,7232
2016-05-02T07:01:56.361Z,7240
2016-05-02T07:02:56.349Z,7072
2016-05-02T07:03:56.227Z,6964
2016-05-02T07:04:56.744Z,6956
2016-05-02T07:05:57.388Z,6976
2016-05-02T07:07:56.549Z,8028
2016-05-02T07:08:56.365Z,8496
2016-05-02T07:09:56.258Z,7864
2016-05-02T07:10:56.557Z,7352
2016-05-02T07:11:56.217Z,7520
2016-05-02T07:12:56.579Z,7384
2016-05-02T07:13:56.581Z,7216
2016-05-02T07:14:56.881Z,7316
2016-05-02T07:15:56.492Z,7200
2016-05-02T07:16:56.402Z,7040
2016-05-02T07:17:56.233Z,7036
2016-05-02T07:18:56.407Z,7020
2016-05-02T07:19:56.409Z,6976
2016-05-02T07:21:11.100Z,7048
2016-05-02T07:21:56.275Z,7152
2016-05-02T07:22:56.261Z,7144
2016-05-02T07:23:56.640Z,7024
2016-05-02T07:24:56.502Z,7012
2016-05-02T07:25:56.442Z,7032
2016-05-02T07:26:56.726Z,7044
2016-05-02T07:28:10.760Z,7064
2016-05-02T07:28:56.481Z,7076
2016-05-02T07:29:56.515Z,7136
2016-05-02T07:30:56.518Z,7112
2016-05-02T07:31:56.332Z,7108
2016-05-02T07:32:56.726Z,7124
2016-05-02T07:34:56.575Z,7188
2016-05-02T07:35:56.515Z,7204
2016-05-02T07:36:56.565Z,7260
2016-05-02T07:37:56.520Z,7440
2016-05-02T07:38:56.540Z,7468
2016-05-02T07:39:56.526Z,7408
2016-05-02T07:40:56.545Z,8424
2016-05-02T07:41:56.798Z,9368
2016-05-02T07:42:56.566Z,8548
2016-05-02T07:43:56.428Z,7916
2016-05-02T07:44:56.790Z,7648
2016-05-02T07:45:56.434Z,7604
2016-05-02T07:46:56.592Z,7636
2016-05-02T07:47:56.610Z,7860
2016-05-02T07:48:56.847Z,7916
2016-05-02T07:49:56.819Z,7740
2016-05-02T07:50:56.822Z,7504
2016-05-02T07:51:56.762Z,7444
2016-05-02T07:52:56.873Z,7404
2016-05-02T07:53:57.064Z,7352
2016-05-02T07:54:57.082Z,7264
2016-05-02T07:57:10.947Z,7108
2016-05-02T07:58:10.559Z,6996
2016-05-02T07:58:56.499Z,6920
2016-05-02T07:59:56.627Z,6872
2016-05-02T08:00:56.927Z,6832
2016-05-02T08:01:56.663Z,6816
2016-05-02T08:02:56.666Z,7352
2016-05-02T08:03:56.528Z,7236
2016-05-02T08:04:56.249Z,7352
2016-05-02T08:05:56.408Z,7180
2016-05-02T08:06:56.755Z,7160
2016-05-02T08:07:56.696Z,7260
2016-05-02T08:08:56.714Z,7604
2016-05-02T08:09:56.918Z,7660
2016-05-02T08:10:56.719Z,7576
2016-05-02T08:11:56.721Z,7768
2016-05-02T08:12:56.568Z,7828
2016-05-02T08:13:56.743Z,7976
2016-05-02T08:14:56.746Z,8248
2016-05-02T08:15:56.998Z,8572
2016-05-02T08:16:56.750Z,8792
2016-05-02T08:17:56.972Z,8844
2016-05-02T08:18:57.006Z,8972
2016-05-02T08:19:56.462Z,9260
2016-05-02T08:20:59.231Z,9708
2016-05-02T08:21:56.795Z,9476
2016-05-02T08:22:56.641Z,9388
2016-05-02T08:23:56.489Z,9412
2016-05-02T08:24:56.381Z,10028
2016-05-02T08:25:56.806Z,10764
2016-05-02T08:26:56.825Z,11448
2016-05-02T08:27:56.827Z,11524
2016-05-02T08:28:56.720Z,11060
2016-05-02T08:29:57.083Z,11120
2016-05-02T08:30:56.835Z,12004
2016-05-02T08:31:56.400Z,12524
2016-05-02T08:32:56.856Z,11752
2016-05-02T08:33:56.890Z,11436
2016-05-02T08:34:56.924Z,13808
2016-05-02T08:35:56.786Z,15476
2016-05-02T08:36:57.570Z,14960
2016-05-02T08:37:57.105Z,14876
2016-05-02T08:38:56.951Z,15348
2016-05-02T08:39:57.124Z,15352
2016-05-02T08:40:57.331Z,15524
2016-05-02T08:41:56.927Z,15500
2016-05-02T08:42:56.962Z,15548
2016-05-02T08:43:56.792Z,16108
2016-05-02T08:44:57.482Z,17376
2016-05-02T08:45:57.032Z,17344
2016-05-02T08:46:57.066Z,15728
2016-05-02T08:47:56.990Z,15660
2016-05-02T08:48:56.853Z,15804
2016-05-02T08:49:56.995Z,15964
2016-05-02T08:50:56.998Z,15704
2016-05-02T08:51:56.876Z,15916
2016-05-02T08:52:57.020Z,14196
2016-05-02T08:53:57.116Z,12408
2016-05-02T08:54:57.102Z,11884
2016-05-02T08:55:57.075Z,11864
2016-05-02T08:56:57.109Z,11324
2016-05-02T08:57:57.314Z,10864
2016-05-02T08:59:11.005Z,11040
2016-05-02T08:59:57.133Z,10520
2016-05-02T09:01:00.103Z,9392
2016-05-02T09:01:57.153Z,9396
2016-05-02T09:02:57.578Z,9064
2016-05-02T09:03:57.752Z,8864
2016-05-02T09:04:57.161Z,9188
2016-05-02T09:05:57.164Z,9236
2016-05-02T09:06:57.151Z,9488
2016-05-02T09:07:57.029Z,8892
2016-05-02T09:08:56.891Z,9236
2016-05-02T09:09:57.034Z,9456
2016-05-02T09:10:57.021Z,9660
2016-05-02T09:11:57.210Z,9992
2016-05-02T09:12:57.245Z,10560
2016-05-02T09:14:57.250Z,13360
2016-05-02T09:15:57.518Z,14928
2016-05-02T09:16:57.256Z,16760
2016-05-02T09:17:57.306Z,16900
2016-05-02T09:18:57.433Z,16988
2016-05-02T09:19:56.967Z,17408
2016-05-02T09:20:57.782Z,18144
2016-05-02T09:21:57.270Z,17536
2016-05-02T09:22:57.272Z,15112
2016-05-02T09:23:57.322Z,13860
2016-05-02T09:24:57.261Z,12136
2016-05-02T09:25:57.312Z,12312
2016-05-02T09:26:57.283Z,13092
2016-05-02T09:27:57.301Z,14364
2016-05-02T09:28:57.320Z,15388
2016-05-02T09:29:57.166Z,13880
2016-05-02T09:30:57.324Z,12908
2016-05-02T09:31:57.343Z,12796
2016-05-02T09:32:57.581Z,13584
2016-05-02T09:33:56.880Z,13576
2016-05-02T09:34:57.397Z,14756
2016-05-02T09:35:57.620Z,14944
2016-05-02T09:36:57.263Z,15012
2016-05-02T09:37:57.405Z,14660
2016-05-02T09:38:57.253Z,13504
2016-05-02T09:39:57.458Z,13768
2016-05-02T09:40:57.820Z,12868
2016-05-02T09:41:57.417Z,12724
2016-05-02T09:42:57.419Z,13800
2016-05-02T09:43:57.453Z,14836
2016-05-02T09:44:57.332Z,15640
2016-05-02T09:45:57.521Z,15468
2016-05-02T09:46:57.493Z,15904
2016-05-02T09:47:57.480Z,17312
2016-05-02T09:48:57.685Z,17888
2016-05-02T09:49:57.485Z,18272
2016-05-02T09:50:57.347Z,19040
2016-05-02T09:51:58.241Z,20224
2016-05-02T09:52:57.509Z,20448
2016-05-02T09:53:57.543Z,20096
2016-05-02T09:54:57.061Z,20096
2016-05-02T09:56:11.611Z,18400
2016-05-02T09:56:57.550Z,17016
2016-05-02T09:57:56.913Z,16396
2016-05-02T09:58:57.572Z,17024
2016-05-02T09:59:57.464Z,15748
2016-05-02T10:00:57.780Z,15712
2016-05-02T10:01:57.799Z,16104
2016-05-02T10:02:57.598Z,15544
2016-05-02T10:03:57.867Z,15488
2016-05-02T10:04:57.463Z,15660
2016-05-02T10:05:57.622Z,15944
2016-05-02T10:06:57.483Z,16364
2016-05-02T10:07:57.846Z,18400
2016-05-02T10:08:57.710Z,19616
2016-05-02T10:09:57.755Z,21984
2016-05-02T10:10:57.644Z,20448
2016-05-02T10:11:57.690Z,20640
2016-05-02T10:12:57.908Z,21984
2016-05-02T10:13:58.178Z,22848
2016-05-02T10:14:57.492Z,21792
2016-05-02T10:15:57.871Z,19776
2016-05-02T10:16:57.904Z,18240
2016-05-02T10:17:57.876Z,18432
2016-05-02T10:18:57.922Z,18720
2016-05-02T10:19:58.102Z,19840
2016-05-02T10:20:58.126Z,20064
2016-05-02T10:21:57.994Z,21120
2016-05-02T10:22:58.096Z,22304
2016-05-02T10:23:58.134Z,24000
2016-05-02T10:24:58.123Z,25472
2016-05-02T10:25:58.159Z,26240
2016-05-02T10:26:57.680Z,26752
2016-05-02T10:28:12.231Z,26208
2016-05-02T10:28:58.189Z,26144
2016-05-02T10:29:58.192Z,25792
2016-05-02T10:30:58.257Z,25792
2016-05-02T10:31:58.293Z,26080
2016-05-02T10:32:58.218Z,27520
2016-05-02T10:33:58.236Z,28768
2016-05-02T10:34:58.255Z,29024
2016-05-02T10:35:58.132Z,28832
2016-05-02T10:36:58.276Z,28544
2016-05-02T10:37:58.122Z,27136
2016-05-02T10:38:58.297Z,25920
2016-05-02T10:40:58.302Z,24352
2016-05-02T10:41:58.305Z,24704
2016-05-02T10:42:58.167Z,23552
2016-05-02T10:43:58.373Z,22144
2016-05-02T10:44:58.360Z,21792
2016-05-02T10:45:58.581Z,22112
2016-05-02T10:46:58.381Z,22848
2016-05-02T10:47:58.398Z,23808
2016-05-02T10:48:58.230Z,25408
2016-05-02T10:49:58.404Z,27104
2016-05-02T10:50:58.407Z,27072
2016-05-02T10:51:58.284Z,25408
2016-05-02T10:52:58.740Z,24096
2016-05-02T10:53:58.462Z,23520
2016-05-02T10:54:58.292Z,22656
2016-05-02T10:55:58.545Z,23168
2016-05-02T10:56:57.986Z,22624
2016-05-02T10:58:12.270Z,21760
2016-05-02T10:58:58.523Z,21440
2016-05-02T10:59:58.541Z,21504
2016-05-02T11:00:58.715Z,24000
2016-05-02T11:01:58.061Z,24928
2016-05-02T11:02:58.392Z,23840
2016-05-02T11:03:58.552Z,24672
2016-05-02T11:04:58.414Z,24544
2016-05-02T11:05:58.433Z,22496
2016-05-02T11:06:58.294Z,19008
2016-05-02T11:07:58.750Z,17024
2016-05-02T11:08:58.643Z,16320
2016-05-02T11:09:58.880Z,16256
2016-05-02T11:10:58.679Z,16576
2016-05-02T11:11:58.635Z,17216
2016-05-02T11:12:58.670Z,18016
2016-05-02T11:13:58.672Z,18848
2016-05-02T11:15:12.769Z,20448
2016-05-02T11:15:58.677Z,21760
2016-05-02T11:16:58.743Z,23392
2016-05-02T11:17:58.433Z,24320
2016-05-02T11:18:58.732Z,24352
2016-05-02T11:20:13.032Z,24416
2016-05-02T11:21:13.363Z,25024
2016-05-02T11:21:58.709Z,25408
2016-05-02T11:22:59.251Z,25920
2016-05-02T11:23:58.770Z,26656
2016-05-02T11:24:58.804Z,27104
2016-05-02T11:25:58.993Z,27168
2016-05-02T11:26:58.840Z,26688
2016-05-02T11:27:58.858Z,25568
2016-05-02T11:28:58.829Z,23872
2016-05-02T11:29:58.692Z,22528
2016-05-02T11:30:58.866Z,21824
2016-05-02T11:32:12.917Z,22240
2016-05-02T11:32:58.934Z,23008
2016-05-02T11:33:58.922Z,24256
2016-05-02T11:34:58.924Z,25888
2016-05-02T11:35:58.770Z,28096
2016-05-02T11:36:59.398Z,29408
2016-05-02T11:37:58.948Z,29760
2016-05-02T11:38:58.950Z,29120
2016-05-02T11:39:59.000Z,28096
2016-05-02T11:40:59.206Z,26528
2016-05-02T11:41:58.818Z,25184
2016-05-02T11:42:58.991Z,24416
2016-05-02T11:43:58.745Z,23968
2016-05-02T11:44:59.013Z,24160
2016-05-02T11:45:59.032Z,24992
2016-05-02T11:46:59.035Z,25728
2016-05-02T11:47:58.568Z,26272
2016-05-02T11:48:59.071Z,26592
2016-05-02T11:49:59.074Z,26464
2016-05-02T11:50:59.857Z,26144
2016-05-02T11:51:58.938Z,26240
2016-05-02T11:52:59.113Z,26656
2016-05-02T11:53:59.178Z,26624
2016-05-02T11:54:59.509Z,27200
2016-05-02T11:55:59.168Z,27584
2016-05-02T11:56:59.170Z,28768
2016-05-02T11:57:59.173Z,29440
2016-05-02T11:58:58.676Z,28352
2016-05-02T11:59:59.382Z,27552
2016-05-02T12:00:59.400Z,27168
2016-05-02T12:01:59.231Z,26464
2016-05-02T12:02:59.218Z,25504
2016-05-02T12:03:59.268Z,24736
2016-05-02T12:04:59.473Z,24480
2016-05-02T12:05:58.617Z,24608
2016-05-02T12:06:59.307Z,24736
2016-05-02T12:07:59.310Z,24704
2016-05-02T12:08:59.344Z,24768
2016-05-02T12:09:59.003Z,24800
2016-05-02T12:10:59.552Z,25248
2016-05-02T12:11:59.352Z,25760
2016-05-02T12:12:59.339Z,26080
2016-05-02T12:13:59.358Z,25696
2016-05-02T12:14:59.407Z,24704
2016-05-02T12:15:59.596Z,23488
2016-05-02T12:16:59.380Z,22816
2016-05-02T12:17:59.805Z,22592
2016-05-02T12:18:59.433Z,22240
2016-05-02T12:19:59.264Z,22240
2016-05-02T12:20:59.282Z,23680
2016-05-02T12:22:59.490Z,25760
2016-05-02T12:23:59.509Z,25056
2016-05-02T12:25:13.776Z,22464
2016-05-02T12:25:59.733Z,21664
2016-05-02T12:26:59.751Z,21280
2016-05-02T12:27:59.738Z,20512
2016-05-02T12:28:59.553Z,19840
2016-05-02T12:29:59.415Z,19584
2016-05-02T12:30:59.590Z,19904
2016-05-02T12:31:59.420Z,20768
2016-05-02T12:32:59.596Z,21696
2016-05-02T12:33:59.676Z,22208
2016-05-02T12:35:13.538Z,22144
2016-05-02T12:36:14.729Z,22272
2016-05-02T12:36:59.669Z,22624
2016-05-02T12:37:59.687Z,23328
2016-05-02T12:38:59.675Z,23520
2016-05-02T12:40:13.770Z,22752
2016-05-02T12:40:59.742Z,22304
2016-05-02T12:41:59.916Z,22144
2016-05-02T12:42:59.950Z,22688
2016-05-02T12:43:59.250Z,23424
2016-05-02T12:44:59.988Z,23136
2016-05-02T12:45:59.740Z,22528
2016-05-02T12:46:59.633Z,22848
2016-05-02T12:47:59.791Z,24800
2016-05-02T12:48:59.780Z,26368
2016-05-02T12:49:59.797Z,27328
2016-05-02T12:50:59.925Z,27296
2016-05-02T12:51:59.882Z,25952
2016-05-02T12:53:00.087Z,24000
2016-05-02T12:54:00.105Z,22880
2016-05-02T12:54:59.889Z,21984
2016-05-02T12:56:00.095Z,21632
2016-05-02T12:56:59.926Z,21536
2016-05-02T12:57:59.913Z,21120
2016-05-02T12:58:59.901Z,20480
2016-05-02T12:59:59.934Z,20064
2016-05-02T13:00:59.952Z,19072
2016-05-02T13:02:00.002Z,17536
2016-05-02T13:02:59.973Z,15656
2016-05-02T13:03:59.835Z,14716
2016-05-02T13:05:00.385Z,14828
2016-05-02T13:06:00.029Z,15888
2016-05-02T13:07:00.218Z,17152
2016-05-02T13:08:00.034Z,18240
2016-05-02T13:09:00.067Z,19904
2016-05-02T13:10:00.211Z,22464
2016-05-02T13:10:59.916Z,24096
2016-05-02T13:12:00.122Z,23040
2016-05-02T13:13:00.141Z,22720
2016-05-02T13:14:00.144Z,23360
2016-05-02T13:15:00.319Z,23200
2016-05-02T13:16:00.336Z,22656
2016-05-02T13:17:00.136Z,20864
2016-05-02T13:18:00.139Z,19616
2016-05-02T13:18:59.985Z,18592
2016-05-02T13:20:00.191Z,17248
2016-05-02T13:21:00.194Z,17088
2016-05-02T13:22:00.258Z,17696
2016-05-02T13:23:00.090Z,18464
2016-05-02T13:24:00.217Z,18944
2016-05-02T13:25:00.266Z,19424
2016-05-02T13:26:00.269Z,19744
2016-05-02T13:27:00.257Z,19904
2016-05-02T13:27:59.807Z,20256
2016-05-02T13:29:00.152Z,20672
2016-05-02T13:29:59.983Z,20992
2016-05-02T13:31:00.299Z,21056
2016-05-02T13:32:00.598Z,20800
2016-05-02T13:33:00.570Z,20224
2016-05-02T13:33:59.869Z,19232
2016-05-02T13:35:00.607Z,18656
2016-05-02T13:35:59.764Z,18880
2016-05-02T13:37:00.658Z,19392
2016-05-02T13:38:00.396Z,19520
2016-05-02T13:39:00.414Z,19584
2016-05-02T13:40:00.276Z,19072
2016-05-02T13:41:00.842Z,19168